createdAt,value
2023-02-21T00:00:35.161Z,30.90
2023-02-21T00:01:35.116Z,35.00
2023-02-21T00:02:34.949Z,29.90
2023-02-21T00:03:34.934Z,35.40
2023-02-21T00:04:34.916Z,30.80
2023-02-21T00:05:35.122Z,34.00
2023-02-21T00:06:35.079Z,32.50
2023-02-21T00:07:34.885Z,31.00
2023-02-21T00:08:34.883Z,31.70
2023-02-21T00:09:34.858Z,37.50
2023-02-21T00:10:34.867Z,33.80
2023-02-21T00:11:35.015Z,34.50
2023-02-21T00:12:34.837Z,31.70
2023-02-21T00:13:34.810Z,38.10
2023-02-21T00:14:34.983Z,37.00
2023-02-21T00:15:34.766Z,32.40
2023-02-21T00:16:34.813Z,39.30
2023-02-21T00:17:34.924Z,35.60
2023-02-21T00:18:34.734Z,33.40
2023-02-21T00:19:34.725Z,33.80
2023-02-21T00:20:34.726Z,35.60
2023-02-21T00:21:34.693Z,36.90
2023-02-21T00:22:34.878Z,35.90
2023-02-21T00:23:34.678Z,34.20
2023-02-21T00:24:34.668Z,33.90
2023-02-21T00:25:34.663Z,33.50
2023-02-21T00:26:34.635Z,38.60
2023-02-21T00:27:34.625Z,32.30
2023-02-21T00:28:34.810Z,36.50
2023-02-21T00:29:34.590Z,37.70
2023-02-21T00:30:34.649Z,41.00
2023-02-21T00:31:34.601Z,35.40
2023-02-21T00:32:34.664Z,40.90
2023-02-21T00:33:34.726Z,35.20
2023-02-21T00:34:34.527Z,34.30
2023-02-21T00:35:34.521Z,40.10
2023-02-21T00:36:34.499Z,35.20
2023-02-21T00:37:34.477Z,45.50
2023-02-21T00:38:34.679Z,42.20
2023-02-21T00:39:34.473Z,37.30
2023-02-21T00:40:34.458Z,38.30
2023-02-21T00:41:34.428Z,39.20
2023-02-21T00:42:34.417Z,38.30
2023-02-21T00:43:36.664Z,37.60
2023-02-21T00:44:34.565Z,39.50
2023-02-21T00:45:34.378Z,34.80
2023-02-21T00:46:34.373Z,36.90
2023-02-21T00:47:34.344Z,37.50
2023-02-21T00:48:34.345Z,35.10
2023-02-21T00:49:34.531Z,42.80
2023-02-21T00:50:34.333Z,34.50
2023-02-21T00:51:34.314Z,40.50
2023-02-21T00:52:34.292Z,37.90
2023-02-21T00:53:34.284Z,38.90
2023-02-21T00:54:34.442Z,40.40
2023-02-21T00:55:34.445Z,38.10
2023-02-21T00:56:34.251Z,39.50
2023-02-21T00:57:34.225Z,41.70
2023-02-21T00:58:34.213Z,43.20
2023-02-21T00:59:34.198Z,38.60
2023-02-21T01:00:34.383Z,41.10
2023-02-21T01:01:34.205Z,39.10
2023-02-21T01:02:34.163Z,38.20
2023-02-21T01:03:34.162Z,47.80
2023-02-21T01:04:34.171Z,43.70
2023-02-21T01:05:34.293Z,43.70
2023-02-21T01:06:34.122Z,40.00
2023-02-21T01:07:34.286Z,45.80
2023-02-21T01:08:34.095Z,41.70
2023-02-21T01:09:34.072Z,45.50
2023-02-21T01:10:34.064Z,45.80
2023-02-21T01:11:34.051Z,48.60
2023-02-21T01:12:34.227Z,41.90
2023-02-21T01:13:34.202Z,40.00
2023-02-21T01:14:34.013Z,51.70
2023-02-21T01:15:34.030Z,47.00
2023-02-21T01:16:33.984Z,43.60
2023-02-21T01:17:33.976Z,46.80
2023-02-21T01:18:33.981Z,39.40
2023-02-21T01:19:34.113Z,42.30
2023-02-21T01:20:33.937Z,46.10
2023-02-21T01:21:33.924Z,46.30
2023-02-21T01:22:33.925Z,41.70
2023-02-21T01:23:34.063Z,47.00
2023-02-21T01:24:34.093Z,44.40
2023-02-21T01:25:33.870Z,43.80
2023-02-21T01:26:33.865Z,42.10
2023-02-21T01:27:33.832Z,46.20
2023-02-21T01:28:33.829Z,45.30
2023-02-21T01:29:34.002Z,44.90
2023-02-21T01:30:33.873Z,45.10
2023-02-21T01:31:33.830Z,47.80
2023-02-21T01:32:33.814Z,51.60
2023-02-21T01:33:33.766Z,45.80
2023-02-21T01:34:36.082Z,46.60
2023-02-21T01:35:33.750Z,45.50
2023-02-21T01:36:33.910Z,55.60
2023-02-21T01:37:33.714Z,47.90
2023-02-21T01:38:33.706Z,51.60
2023-02-21T01:39:33.689Z,46.30
2023-02-21T01:40:33.689Z,52.30
2023-02-21T01:41:33.928Z,47.70
2023-02-21T01:42:33.648Z,47.90
2023-02-21T01:43:33.628Z,47.80
2023-02-21T01:44:33.630Z,47.90
2023-02-21T01:45:33.606Z,47.80
2023-02-21T01:46:33.897Z,49.10
2023-02-21T01:47:33.611Z,45.20
2023-02-21T01:48:33.577Z,50.10
2023-02-21T01:49:33.557Z,53.50
2023-02-21T01:50:33.549Z,53.50
2023-02-21T01:51:33.711Z,47.70
2023-02-21T01:52:33.697Z,52.60
2023-02-21T01:53:33.503Z,51.40
2023-02-21T01:54:33.486Z,53.20
2023-02-21T01:55:33.467Z,48.00
2023-02-21T01:56:33.467Z,53.50
2023-02-21T01:57:33.616Z,57.90
2023-02-21T01:58:33.806Z,52.90
2023-02-21T01:59:33.442Z,49.20
2023-02-21T02:00:33.421Z,49.50
2023-02-21T02:01:33.404Z,51.90
2023-02-21T02:02:33.399Z,55.00
2023-02-21T02:03:33.376Z,51.60
2023-02-21T02:04:33.400Z,48.60
2023-02-21T02:05:33.346Z,49.80
2023-02-21T02:06:33.645Z,55.40
2023-02-21T02:07:33.323Z,52.80
2023-02-21T02:08:33.307Z,45.60
2023-02-21T02:09:33.302Z,52.30
2023-02-21T02:10:33.291Z,52.90
2023-02-21T02:11:33.444Z,57.90
2023-02-21T02:12:33.279Z,52.50
2023-02-21T02:13:33.231Z,57.20
2023-02-21T02:14:33.237Z,52.50
2023-02-21T02:15:33.411Z,50.00
2023-02-21T02:16:33.202Z,50.80
2023-02-21T02:17:33.361Z,54.20
2023-02-21T02:18:33.364Z,52.10
2023-02-21T02:19:33.221Z,50.60
2023-02-21T02:20:33.160Z,60.60
2023-02-21T02:21:33.138Z,51.10
2023-02-21T02:22:33.132Z,57.20
2023-02-21T02:23:33.438Z,60.10
2023-02-21T02:24:33.289Z,63.00
2023-02-21T02:25:33.089Z,60.10
2023-02-21T02:26:33.089Z,59.90
2023-02-21T02:27:33.241Z,57.90
2023-02-21T02:28:33.050Z,62.20
2023-02-21T02:29:33.037Z,62.10
2023-02-21T02:30:33.137Z,60.90
2023-02-21T02:31:33.338Z,53.90
2023-02-21T02:32:32.999Z,58.70
2023-02-21T02:33:32.996Z,59.50
2023-02-21T02:34:32.993Z,57.60
2023-02-21T02:35:33.128Z,55.40
2023-02-21T02:36:32.951Z,53.50
2023-02-21T02:37:32.930Z,56.30
2023-02-21T02:38:32.956Z,56.70
2023-02-21T02:39:32.915Z,63.30
2023-02-21T02:40:33.066Z,63.80
2023-02-21T02:41:32.885Z,55.00
2023-02-21T02:42:33.047Z,61.40
2023-02-21T02:43:32.910Z,61.80
2023-02-21T02:44:32.838Z,60.30
2023-02-21T02:45:32.826Z,64.30
2023-02-21T02:46:32.824Z,66.10
2023-02-21T02:47:32.986Z,62.20
2023-02-21T02:48:32.802Z,62.50
2023-02-21T02:49:32.780Z,60.30
2023-02-21T02:50:32.770Z,68.50
2023-02-21T02:51:32.785Z,55.90
2023-02-21T02:52:32.916Z,54.90
2023-02-21T02:53:32.890Z,61.90
2023-02-21T02:54:32.727Z,61.50
2023-02-21T02:55:32.692Z,55.50
2023-02-21T02:56:32.698Z,65.20
2023-02-21T02:57:32.668Z,60.00
2023-02-21T02:58:32.840Z,65.50
2023-02-21T02:59:32.646Z,58.90
2023-02-21T03:00:32.638Z,65.20
2023-02-21T03:01:32.660Z,56.80
2023-02-21T03:02:32.597Z,55.30
2023-02-21T03:03:32.791Z,56.00
2023-02-21T03:04:32.586Z,57.00
2023-02-21T03:05:32.739Z,59.60
2023-02-21T03:06:32.568Z,60.20
2023-02-21T03:07:32.538Z,60.30
2023-02-21T03:08:32.531Z,64.20
2023-02-21T03:09:32.519Z,61.10
2023-02-21T03:10:32.504Z,56.40
2023-02-21T03:11:32.509Z,53.40
2023-02-21T03:12:32.486Z,56.10
2023-02-21T03:13:32.454Z,56.10
2023-02-21T03:14:32.454Z,53.40
2023-02-21T03:15:32.457Z,51.90
2023-02-21T03:16:32.443Z,52.70
2023-02-21T03:17:32.422Z,53.10
2023-02-21T03:18:32.403Z,56.30
2023-02-21T03:19:32.382Z,60.80
2023-02-21T03:20:32.371Z,54.80
2023-02-21T03:21:32.554Z,59.40
2023-02-21T03:22:32.522Z,55.20
2023-02-21T03:23:32.326Z,54.60
2023-02-21T03:24:32.313Z,50.40
2023-02-21T03:25:32.358Z,53.20
2023-02-21T03:26:32.303Z,46.60
2023-02-21T03:27:32.451Z,54.10
2023-02-21T03:28:32.262Z,55.60
2023-02-21T03:29:32.260Z,54.30
2023-02-21T03:30:32.260Z,54.40
2023-02-21T03:31:32.356Z,54.60
2023-02-21T03:32:32.399Z,58.10
2023-02-21T03:33:32.372Z,46.80
2023-02-21T03:34:32.208Z,58.70
2023-02-21T03:35:32.181Z,50.00
2023-02-21T03:36:32.176Z,48.90
2023-02-21T03:37:32.162Z,50.80
2023-02-21T03:38:32.325Z,53.30
2023-02-21T03:39:32.121Z,48.30
2023-02-21T03:40:32.117Z,49.90
2023-02-21T03:41:32.099Z,50.60
2023-02-21T03:42:32.094Z,47.10
2023-02-21T03:43:32.491Z,48.70
2023-02-21T03:44:32.264Z,48.10
2023-02-21T03:45:32.048Z,49.50
2023-02-21T03:46:32.080Z,48.80
2023-02-21T03:47:32.017Z,54.50
2023-02-21T03:48:32.892Z,49.90
2023-02-21T03:49:32.190Z,60.60
2023-02-21T03:50:32.001Z,54.80
2023-02-21T03:51:31.969Z,50.00
2023-02-21T03:52:31.959Z,55.30
2023-02-21T03:53:32.125Z,45.30
2023-02-21T03:54:31.926Z,53.60
2023-02-21T03:55:32.100Z,48.10
2023-02-21T03:56:41.623Z,52.00
2023-02-21T03:57:32.890Z,51.60
2023-02-21T03:58:31.888Z,48.80
2023-02-21T03:59:31.860Z,51.20
2023-02-21T04:00:32.048Z,48.00
2023-02-21T04:01:31.838Z,47.10
2023-02-21T04:02:31.837Z,48.80
2023-02-21T04:03:31.826Z,52.10
2023-02-21T04:04:31.990Z,47.40
2023-02-21T04:05:31.788Z,49.50
2023-02-21T04:06:31.791Z,46.20
2023-02-21T04:07:31.757Z,49.30
2023-02-21T04:08:31.756Z,46.00
2023-02-21T04:09:31.920Z,50.40
2023-02-21T04:10:35.770Z,50.40
2023-02-21T04:11:32.722Z,49.60
2023-02-21T04:12:31.696Z,48.20
2023-02-21T04:13:31.686Z,49.00
2023-02-21T04:14:31.678Z,43.30
2023-02-21T04:15:31.966Z,52.60
2023-02-21T04:16:31.711Z,43.70
2023-02-21T04:17:31.625Z,48.30
2023-02-21T04:18:31.635Z,48.30
2023-02-21T04:19:31.616Z,50.80
2023-02-21T04:20:31.776Z,51.50
2023-02-21T04:21:31.585Z,45.90
2023-02-21T04:22:31.574Z,50.60
2023-02-21T04:23:31.558Z,46.40
2023-02-21T04:24:31.543Z,53.90
2023-02-21T04:25:31.718Z,51.30
2023-02-21T04:26:31.524Z,43.60
2023-02-21T04:27:31.681Z,48.30
2023-02-21T04:28:31.521Z,49.10
2023-02-21T04:29:31.483Z,52.00
2023-02-21T04:30:31.594Z,48.50
2023-02-21T04:31:31.469Z,50.40
2023-02-21T04:32:31.674Z,53.70
2023-02-21T04:33:31.433Z,49.00
2023-02-21T04:34:31.430Z,46.00
2023-02-21T04:35:31.573Z,53.40
2023-02-21T04:36:31.393Z,49.90
2023-02-21T04:37:31.375Z,55.40
2023-02-21T04:38:31.363Z,55.10
2023-02-21T04:39:31.354Z,47.90
2023-02-21T04:40:31.519Z,51.90
2023-02-21T04:41:31.324Z,47.50
2023-02-21T04:42:31.316Z,54.30
2023-02-21T04:43:31.310Z,51.40
2023-02-21T04:44:31.291Z,55.90
2023-02-21T04:45:31.491Z,59.40
2023-02-21T04:46:31.282Z,52.50
2023-02-21T04:47:31.244Z,52.90
2023-02-21T04:48:31.243Z,50.90
2023-02-21T04:49:31.230Z,53.30
2023-02-21T04:50:31.383Z,50.30
2023-02-21T04:51:31.369Z,48.60
2023-02-21T04:52:31.191Z,48.80
2023-02-21T04:53:31.184Z,50.20
2023-02-21T04:54:31.159Z,51.00
2023-02-21T04:55:31.147Z,55.40
2023-02-21T04:56:31.592Z,54.00
2023-02-21T04:57:31.297Z,48.60
2023-02-21T04:58:39.699Z,52.40
2023-02-21T04:59:32.088Z,59.10
2023-02-21T05:00:31.080Z,50.10
2023-02-21T05:01:31.245Z,54.40
2023-02-21T05:02:31.242Z,49.70
2023-02-21T05:03:31.039Z,49.30
2023-02-21T05:04:31.039Z,55.00
2023-02-21T05:05:31.188Z,46.90
2023-02-21T05:06:31.006Z,50.80
2023-02-21T05:07:30.991Z,59.00
2023-02-21T05:08:30.979Z,50.40
2023-02-21T05:09:30.964Z,49.90
2023-02-21T05:10:44.703Z,54.20
2023-02-21T05:11:31.944Z,54.40
2023-02-21T05:12:30.926Z,51.30
2023-02-21T05:13:30.918Z,54.80
2023-02-21T05:14:30.912Z,52.90
2023-02-21T05:15:31.096Z,53.70
2023-02-21T05:16:30.887Z,53.70
2023-02-21T05:17:30.855Z,52.10
2023-02-21T05:18:30.855Z,60.80
2023-02-21T05:19:30.845Z,56.40
2023-02-21T05:20:30.993Z,54.00
2023-02-21T05:21:30.805Z,60.60
2023-02-21T05:22:30.837Z,58.20
2023-02-21T05:23:30.795Z,50.90
2023-02-21T05:24:30.787Z,56.60
2023-02-21T05:25:30.934Z,57.80
2023-02-21T05:26:30.744Z,53.40
2023-02-21T05:27:30.753Z,54.80
2023-02-21T05:28:30.722Z,52.60
2023-02-21T05:29:30.705Z,56.30
2023-02-21T05:30:30.972Z,58.60
2023-02-21T05:31:30.682Z,54.80
2023-02-21T05:32:30.672Z,61.50
2023-02-21T05:33:30.658Z,54.80
2023-02-21T05:34:30.820Z,56.10
2023-02-21T05:35:30.619Z,60.10
2023-02-21T05:36:30.818Z,65.20
2023-02-21T05:37:31.492Z,64.20
2023-02-21T05:38:30.587Z,60.50
2023-02-21T05:39:30.697Z,55.80
2023-02-21T05:40:30.566Z,64.40
2023-02-21T05:41:30.738Z,63.80
2023-02-21T05:42:30.720Z,64.80
2023-02-21T05:43:30.529Z,61.10
2023-02-21T05:44:30.512Z,60.60
2023-02-21T05:45:30.673Z,62.50
2023-02-21T05:46:30.510Z,65.90
2023-02-21T05:47:30.480Z,63.10
2023-02-21T05:48:30.469Z,67.40
2023-02-21T05:49:30.448Z,62.90
2023-02-21T05:50:30.607Z,54.70
2023-02-21T05:51:30.418Z,67.50
2023-02-21T05:52:30.421Z,65.10
2023-02-21T05:53:30.569Z,60.50
2023-02-21T05:54:30.374Z,66.50
2023-02-21T05:55:30.381Z,51.80
2023-02-21T05:56:30.366Z,63.30
2023-02-21T05:57:30.345Z,68.00
2023-02-21T05:58:30.493Z,65.60
2023-02-21T05:59:30.483Z,73.00
2023-02-21T06:00:30.312Z,67.10
2023-02-21T06:01:30.282Z,59.00
2023-02-21T06:02:30.345Z,63.70
2023-02-21T06:03:30.416Z,69.60
2023-02-21T06:04:30.418Z,69.40
2023-02-21T06:05:30.239Z,60.70
2023-02-21T06:06:30.240Z,69.90
2023-02-21T06:07:30.389Z,58.60
2023-02-21T06:08:30.191Z,66.00
2023-02-21T06:09:30.179Z,69.50
2023-02-21T06:10:30.172Z,69.90
2023-02-21T06:11:30.157Z,73.50
2023-02-21T06:12:30.328Z,70.90
2023-02-21T06:13:32.139Z,76.40
2023-02-21T06:14:30.111Z,71.40
2023-02-21T06:15:30.106Z,75.60
2023-02-21T06:16:30.087Z,76.80
2023-02-21T06:17:30.077Z,65.20
2023-02-21T06:18:30.416Z,74.30
2023-02-21T06:19:31.542Z,76.70
2023-02-21T06:20:30.025Z,69.40
2023-02-21T06:21:30.026Z,69.90
2023-02-21T06:22:30.007Z,70.00
2023-02-21T06:23:30.192Z,79.40
2023-02-21T06:24:29.996Z,75.30
2023-02-21T06:25:29.973Z,69.80
2023-02-21T06:26:29.962Z,70.50
2023-02-21T06:27:29.943Z,78.10
2023-02-21T06:28:29.923Z,76.70
2023-02-21T06:29:30.097Z,77.50
2023-02-21T06:30:29.934Z,75.80
2023-02-21T06:31:29.919Z,76.40
2023-02-21T06:32:30.065Z,72.70
2023-02-21T06:33:29.885Z,73.80
2023-02-21T06:34:29.857Z,71.20
2023-02-21T06:35:29.855Z,79.00
2023-02-21T06:36:29.856Z,76.10
2023-02-21T06:37:30.018Z,66.90
2023-02-21T06:38:29.812Z,76.90
2023-02-21T06:39:29.809Z,74.90
2023-02-21T06:40:29.780Z,72.30
2023-02-21T06:41:29.778Z,71.90
2023-02-21T06:42:29.802Z,71.90
2023-02-21T06:43:29.747Z,77.20
2023-02-21T06:44:29.804Z,71.40
2023-02-21T06:45:29.726Z,63.30
2023-02-21T06:46:29.797Z,74.10
2023-02-21T06:47:29.703Z,68.60
2023-02-21T06:48:29.686Z,68.80
2023-02-21T06:49:29.676Z,65.40
2023-02-21T06:50:29.657Z,81.10
2023-02-21T06:51:30.117Z,76.30
2023-02-21T06:52:29.627Z,73.70
2023-02-21T06:53:29.625Z,79.70
2023-02-21T06:54:29.620Z,77.10
2023-02-21T06:55:29.600Z,72.00
2023-02-21T06:56:29.765Z,69.60
2023-02-21T06:57:29.565Z,71.50
2023-02-21T06:58:29.547Z,77.50
2023-02-21T06:59:29.740Z,72.40
2023-02-21T07:00:29.529Z,74.30
2023-02-21T07:01:29.562Z,73.80
2023-02-21T07:02:29.497Z,72.60
2023-02-21T07:03:29.513Z,81.00
2023-02-21T07:04:29.476Z,77.00
2023-02-21T07:05:29.474Z,74.40
2023-02-21T07:06:30.068Z,77.30
2023-02-21T07:07:29.440Z,77.20
2023-02-21T07:08:29.443Z,75.00
2023-02-21T07:09:29.416Z,79.90
2023-02-21T07:10:29.431Z,71.40
2023-02-21T07:11:29.382Z,81.70
2023-02-21T07:12:29.387Z,72.70
2023-02-21T07:13:29.512Z,82.00
2023-02-21T07:14:29.344Z,71.40
2023-02-21T07:15:29.341Z,64.40
2023-02-21T07:16:29.509Z,68.10
2023-02-21T07:17:29.315Z,74.20
2023-02-21T07:18:29.314Z,74.60
2023-02-21T07:19:29.452Z,72.80
2023-02-21T07:20:29.291Z,70.20
2023-02-21T07:21:29.256Z,76.60
2023-02-21T07:22:29.289Z,79.00
2023-02-21T07:23:29.232Z,79.90
2023-02-21T07:24:29.225Z,82.40
2023-02-21T07:25:29.293Z,77.50
2023-02-21T07:26:29.365Z,71.20
2023-02-21T07:27:29.175Z,75.80
2023-02-21T07:28:29.172Z,78.30
2023-02-21T07:29:29.146Z,81.60
2023-02-21T07:30:29.210Z,87.20
2023-02-21T07:31:29.217Z,75.60
2023-02-21T07:32:29.131Z,76.70
2023-02-21T07:33:29.095Z,69.50
2023-02-21T07:34:29.095Z,85.00
2023-02-21T07:35:29.072Z,68.80
2023-02-21T07:36:29.082Z,78.90
2023-02-21T07:37:29.044Z,80.00
2023-02-21T07:38:29.046Z,78.20
2023-02-21T07:39:29.032Z,79.60
2023-02-21T07:40:29.017Z,78.90
2023-02-21T07:41:29.168Z,70.60
2023-02-21T07:42:28.978Z,74.40
2023-02-21T07:43:28.963Z,73.70
2023-02-21T07:44:28.967Z,82.70
2023-02-21T07:45:28.944Z,79.90
2023-02-21T07:46:29.006Z,72.10
2023-02-21T07:47:28.920Z,76.80
2023-02-21T07:48:28.943Z,81.40
2023-02-21T07:49:28.894Z,72.60
2023-02-21T07:50:28.871Z,80.60
2023-02-21T07:51:28.894Z,73.00
2023-02-21T07:52:28.863Z,77.40
2023-02-21T07:53:28.841Z,80.10
2023-02-21T07:54:28.828Z,78.70
2023-02-21T07:55:28.811Z,81.50
2023-02-21T07:56:29.111Z,79.70
2023-02-21T07:57:28.781Z,74.30
2023-02-21T07:58:28.781Z,79.70
2023-02-21T07:59:28.759Z,76.90
2023-02-21T08:00:28.752Z,73.40
2023-02-21T08:01:28.786Z,83.50
2023-02-21T08:02:28.760Z,77.70
2023-02-21T08:03:28.726Z,77.30
2023-02-21T08:04:28.748Z,79.40
2023-02-21T08:05:28.682Z,73.60
2023-02-21T08:06:28.691Z,73.60
2023-02-21T08:07:28.828Z,70.90
2023-02-21T08:08:28.644Z,88.00
2023-02-21T08:09:28.808Z,75.70
2023-02-21T08:10:28.646Z,70.10
2023-02-21T08:11:28.607Z,76.40
2023-02-21T08:12:28.605Z,78.80
2023-02-21T08:13:28.575Z,82.50
2023-02-21T08:14:28.589Z,80.10
2023-02-21T08:15:28.563Z,79.10
2023-02-21T08:16:28.664Z,80.30
2023-02-21T08:17:28.527Z,78.90
2023-02-21T08:18:28.516Z,75.30
2023-02-21T08:19:28.683Z,72.70
2023-02-21T08:20:28.676Z,76.70
2023-02-21T08:21:28.463Z,68.60
2023-02-21T08:22:28.464Z,64.00
2023-02-21T08:23:28.456Z,73.80
2023-02-21T08:24:28.442Z,70.70
2023-02-21T08:25:28.436Z,73.90
2023-02-21T08:26:28.412Z,66.00
2023-02-21T08:27:28.388Z,71.50
2023-02-21T08:28:28.381Z,66.50
2023-02-21T08:29:28.358Z,70.20
2023-02-21T08:30:28.390Z,65.30
2023-02-21T08:31:28.369Z,66.00
2023-02-21T08:32:28.376Z,54.70
2023-02-21T08:33:30.088Z,63.00
2023-02-21T08:34:28.320Z,61.20
2023-02-21T08:35:28.317Z,60.60
2023-02-21T08:36:28.277Z,61.00
2023-02-21T08:37:28.268Z,64.30
2023-02-21T08:38:28.257Z,65.30
2023-02-21T08:39:28.238Z,66.30
2023-02-21T08:40:28.254Z,61.70
2023-02-21T08:41:28.216Z,80.10
2023-02-21T08:42:28.185Z,62.70
2023-02-21T08:43:28.275Z,64.60
2023-02-21T08:44:28.216Z,64.30
2023-02-21T08:45:28.156Z,68.80
2023-02-21T08:46:28.237Z,66.80
2023-02-21T08:47:28.136Z,72.60
2023-02-21T08:48:28.128Z,63.20
2023-02-21T08:49:28.114Z,67.90
2023-02-21T08:50:28.140Z,65.80
2023-02-21T08:51:28.087Z,70.30
2023-02-21T08:52:28.066Z,73.10
2023-02-21T08:53:28.057Z,69.10
2023-02-21T08:54:28.058Z,63.50
2023-02-21T08:55:28.059Z,73.10
2023-02-21T08:56:28.012Z,68.60
2023-02-21T08:57:28.032Z,69.70
2023-02-21T08:58:28.052Z,64.70
2023-02-21T08:59:28.063Z,86.60
2023-02-21T09:00:27.987Z,74.40
2023-02-21T09:01:28.037Z,67.60
2023-02-21T09:02:27.951Z,76.80
2023-02-21T09:03:27.960Z,73.30
2023-02-21T09:04:27.930Z,85.20
2023-02-21T09:05:27.910Z,67.00
2023-02-21T09:06:27.884Z,73.10
2023-02-21T09:07:27.895Z,79.50
2023-02-21T09:08:27.868Z,70.20
2023-02-21T09:09:28.160Z,71.00
2023-02-21T09:10:27.939Z,77.40
2023-02-21T09:11:27.838Z,67.10
2023-02-21T09:12:27.817Z,71.30
2023-02-21T09:13:27.839Z,75.30
2023-02-21T09:14:27.796Z,72.80
2023-02-21T09:15:27.778Z,58.50
2023-02-21T09:16:27.829Z,67.80
2023-02-21T09:17:27.775Z,71.00
2023-02-21T09:18:27.758Z,69.10
2023-02-21T09:19:27.730Z,65.90
2023-02-21T09:20:27.768Z,59.60
2023-02-21T09:21:27.694Z,58.20
2023-02-21T09:22:27.688Z,64.70
2023-02-21T09:23:28.238Z,70.70
2023-02-21T09:24:27.654Z,55.40
2023-02-21T09:25:27.648Z,52.50
2023-02-21T09:26:27.661Z,59.30
2023-02-21T09:27:27.618Z,69.30
2023-02-21T09:28:27.656Z,63.90
2023-02-21T09:29:31.664Z,53.10
2023-02-21T09:30:28.581Z,49.70
2023-02-21T09:31:27.808Z,53.20
2023-02-21T09:32:27.598Z,49.50
2023-02-21T09:33:27.588Z,47.10
2023-02-21T09:34:27.520Z,56.10
2023-02-21T09:35:27.510Z,51.80
2023-02-21T09:36:27.522Z,53.60
2023-02-21T09:37:27.532Z,52.70
2023-02-21T09:38:27.471Z,55.50
2023-02-21T09:39:27.461Z,49.40
2023-02-21T09:40:27.474Z,55.40
2023-02-21T09:41:27.450Z,51.80
2023-02-21T09:42:27.430Z,58.20
2023-02-21T09:43:27.438Z,55.80
2023-02-21T09:44:27.406Z,58.80
2023-02-21T09:45:27.482Z,51.40
2023-02-21T09:46:27.378Z,54.60
2023-02-21T09:47:27.380Z,55.40
2023-02-21T09:48:27.347Z,60.00
2023-02-21T09:49:27.354Z,60.50
2023-02-21T09:50:27.332Z,59.30
2023-02-21T09:51:27.312Z,55.00
2023-02-21T09:52:27.312Z,52.60
2023-02-21T09:53:27.311Z,55.90
2023-02-21T09:54:27.271Z,58.50
2023-02-21T09:55:29.107Z,54.00
2023-02-21T09:56:27.238Z,50.80
2023-02-21T09:57:27.424Z,50.00
2023-02-21T09:58:27.225Z,53.40
2023-02-21T09:59:27.202Z,51.80
2023-02-21T10:00:27.231Z,46.60
2023-02-21T10:01:27.217Z,47.50
2023-02-21T10:02:27.351Z,43.00
2023-02-21T10:03:27.158Z,45.00
2023-02-21T10:04:27.153Z,48.70
2023-02-21T10:05:27.173Z,54.70
2023-02-21T10:06:27.103Z,59.40
2023-02-21T10:07:27.108Z,44.90
2023-02-21T10:08:27.093Z,51.10
2023-02-21T10:09:27.077Z,51.70
2023-02-21T10:10:27.074Z,38.70
2023-02-21T10:11:27.053Z,46.90
2023-02-21T10:12:27.045Z,48.40
2023-02-21T10:13:27.047Z,50.10
2023-02-21T10:14:27.002Z,55.10
2023-02-21T10:15:26.993Z,53.90
2023-02-21T10:16:27.065Z,51.30
2023-02-21T10:17:27.793Z,53.20
2023-02-21T10:18:27.131Z,51.90
2023-02-21T10:19:26.937Z,47.30
2023-02-21T10:20:26.926Z,57.30
2023-02-21T10:21:26.919Z,53.90
2023-02-21T10:22:26.921Z,51.00
2023-02-21T10:23:27.069Z,58.20
2023-02-21T10:24:26.877Z,53.10
2023-02-21T10:25:26.869Z,48.20
2023-02-21T10:26:26.861Z,44.50
2023-02-21T10:27:26.852Z,47.40
2023-02-21T10:28:26.997Z,49.00
2023-02-21T10:29:26.827Z,52.60
2023-02-21T10:30:27.105Z,51.00
2023-02-21T10:31:26.844Z,56.00
2023-02-21T10:32:26.762Z,48.90
2023-02-21T10:33:26.754Z,52.10
2023-02-21T10:34:26.877Z,44.40
2023-02-21T10:35:26.742Z,39.70
2023-02-21T10:36:26.712Z,39.90
2023-02-21T10:37:26.772Z,39.70
2023-02-21T10:38:26.699Z,35.30
2023-02-21T10:39:26.680Z,41.60
2023-02-21T10:40:26.982Z,40.90
2023-02-21T10:41:26.663Z,35.10
2023-02-21T10:42:26.670Z,29.90
2023-02-21T10:43:26.650Z,35.10
2023-02-21T10:44:26.629Z,33.80
2023-02-21T10:45:26.620Z,36.00
2023-02-21T10:46:26.927Z,36.00
2023-02-21T10:47:26.603Z,34.90
2023-02-21T10:48:26.562Z,37.50
2023-02-21T10:49:26.560Z,33.50
2023-02-21T10:50:26.558Z,38.20
2023-02-21T10:51:26.727Z,34.60
2023-02-21T10:52:26.508Z,36.30
2023-02-21T10:53:26.499Z,29.60
2023-02-21T10:54:26.490Z,25.60
2023-02-21T10:55:33.217Z,30.50
2023-02-21T10:56:27.501Z,30.90
2023-02-21T10:57:26.458Z,29.80
2023-02-21T10:58:26.426Z,30.30
2023-02-21T10:59:26.418Z,27.60
2023-02-21T11:00:26.406Z,31.80
2023-02-21T11:01:26.639Z,31.20
2023-02-21T11:02:26.563Z,28.80
2023-02-21T11:03:26.376Z,31.60
2023-02-21T11:04:26.346Z,26.90
2023-02-21T11:05:26.411Z,24.00
2023-02-21T11:06:27.954Z,28.60
2023-02-21T11:07:26.398Z,28.40
2023-02-21T11:08:26.357Z,29.40
2023-02-21T11:09:26.327Z,21.20
2023-02-21T11:10:26.330Z,25.00
2023-02-21T11:11:26.268Z,24.90
2023-02-21T11:12:26.252Z,26.30
2023-02-21T11:13:26.413Z,26.30
2023-02-21T11:14:26.255Z,24.10
2023-02-21T11:15:26.215Z,28.90
2023-02-21T11:16:26.238Z,24.40
2023-02-21T11:17:26.220Z,28.30
2023-02-21T11:18:26.167Z,30.40
2023-02-21T11:19:26.174Z,27.70
2023-02-21T11:20:26.155Z,29.00
2023-02-21T11:21:26.145Z,27.50
2023-02-21T11:22:26.135Z,28.00
2023-02-21T11:23:26.142Z,30.10
2023-02-21T11:24:26.109Z,27.70
2023-02-21T11:25:26.088Z,27.40
2023-02-21T11:26:26.065Z,24.90
2023-02-21T11:27:26.080Z,27.10
2023-02-21T11:28:26.084Z,29.20
2023-02-21T11:29:26.047Z,28.90
2023-02-21T11:30:26.087Z,30.70
2023-02-21T11:31:26.034Z,30.40
2023-02-21T11:32:26.013Z,32.40
2023-02-21T11:33:25.974Z,30.70
2023-02-21T11:34:25.972Z,29.60
2023-02-21T11:35:25.965Z,28.90
2023-02-21T11:36:25.948Z,26.30
2023-02-21T11:37:25.941Z,28.00
2023-02-21T11:38:28.333Z,26.80
2023-02-21T11:39:25.904Z,30.30
2023-02-21T11:40:25.928Z,27.20
2023-02-21T11:41:25.934Z,29.60
2023-02-21T11:42:25.874Z,30.80
2023-02-21T11:43:25.857Z,25.80
2023-02-21T11:44:25.849Z,25.40
2023-02-21T11:45:25.825Z,21.90
2023-02-21T11:46:25.894Z,33.10
2023-02-21T11:47:25.826Z,25.10
2023-02-21T11:48:25.804Z,25.50
2023-02-21T11:49:25.783Z,23.60
2023-02-21T11:50:25.784Z,28.80
2023-02-21T11:51:25.943Z,28.70
2023-02-21T11:52:25.753Z,23.10
2023-02-21T11:53:25.737Z,20.50
2023-02-21T11:54:25.713Z,25.40
2023-02-21T11:55:26.585Z,21.80
2023-02-21T11:56:25.689Z,25.50
2023-02-21T11:57:25.690Z,21.60
2023-02-21T11:58:25.646Z,23.10
2023-02-21T11:59:25.649Z,23.00
2023-02-21T12:00:25.639Z,22.80
2023-02-21T12:01:25.629Z,22.30
2023-02-21T12:02:25.650Z,24.40
2023-02-21T12:03:25.628Z,23.20
2023-02-21T12:04:25.577Z,25.60
2023-02-21T12:05:25.565Z,17.60
2023-02-21T12:06:25.561Z,20.20
2023-02-21T12:07:25.719Z,24.00
2023-02-21T12:08:25.533Z,22.60
2023-02-21T12:09:25.524Z,26.10
2023-02-21T12:10:25.510Z,29.60
2023-02-21T12:11:25.489Z,27.70
2023-02-21T12:12:25.495Z,26.00
2023-02-21T12:13:26.283Z,28.30
2023-02-21T12:14:25.453Z,28.00
2023-02-21T12:15:25.483Z,25.50
2023-02-21T12:16:25.417Z,26.40
2023-02-21T12:17:25.405Z,30.80
2023-02-21T12:18:25.594Z,26.40
2023-02-21T12:19:25.571Z,27.00
2023-02-21T12:20:25.371Z,30.30
2023-02-21T12:21:25.351Z,31.60
2023-02-21T12:22:25.339Z,32.30
2023-02-21T12:23:25.341Z,31.10
2023-02-21T12:24:25.613Z,28.50
2023-02-21T12:25:25.452Z,31.30
2023-02-21T12:26:25.309Z,31.90
2023-02-21T12:27:25.352Z,35.50
2023-02-21T12:28:25.271Z,24.30
2023-02-21T12:29:25.260Z,27.30
2023-02-21T12:30:25.250Z,28.80
2023-02-21T12:31:25.312Z,31.80
2023-02-21T12:32:25.319Z,28.40
2023-02-21T12:33:26.099Z,34.10
2023-02-21T12:34:25.211Z,28.40
2023-02-21T12:35:25.285Z,27.00
2023-02-21T12:36:25.175Z,34.70
2023-02-21T12:37:25.161Z,34.40
2023-02-21T12:38:25.142Z,34.20
2023-02-21T12:39:25.140Z,30.50
2023-02-21T12:40:25.118Z,30.40
2023-02-21T12:41:25.123Z,37.30
2023-02-21T12:42:25.092Z,34.30
2023-02-21T12:43:25.101Z,33.70
2023-02-21T12:44:25.061Z,35.00
2023-02-21T12:45:25.065Z,31.60
2023-02-21T12:46:25.096Z,36.00
2023-02-21T12:47:25.023Z,32.40
2023-02-21T12:48:25.066Z,29.70
2023-02-21T12:49:25.021Z,30.80
2023-02-21T12:50:25.022Z,32.40
2023-02-21T12:51:25.004Z,35.20
2023-02-21T12:52:24.972Z,31.20